Terminal Aerodrome Forecast
Issued by NWS

Current Version | Previous Version | Graphics & Text | Print | Product List | Glossary On
Versions: 1 2 3 4 5 6 7 8 9 10 11 12 13 14 15 16 17
421
FTUS41 KPBZ 061457 AAA
TAFMGW
TAF AMD
KMGW 061457Z 0615/0712 22003KT P6SM SCT080=

USA.gov is the U.S. government's official web portal to all federal, state and local government web resources and services.